Sao Jose do Egito, Brazil
Current Conditions -  °F | °C
As of 6:00 PM on Sunday 23 Nov 2014 (Local Time) from SBKG Reporting Station
Few Clouds Few Clouds  
Wind Chill: 77°   Ceiling: Unl
Heat Index: 79°   Visibility: 6mi
Dew Point: 64°   Wind: 17mph
Humidity: 65%   Direction: 80°E
Pressure: 29.94"   Gusts: NA
Location:  7.48°S, 37.27°W
Report Text: SBKG 232100Z 08015KT 9999 FEW025 25/18 Q1014
Loading
Personal Weather Stations






























Interactive Weather Map New forecast layout! Learn more

10-Day Weather Forecast

Advertisements
Track Severe Weather on mobile